sensor_id;sensor_type;location;lat;lon;timestamp;P1;durP1;ratioP1;P2;durP2;ratioP2
69161;SDS011;56269;51.738;21.652;2023-07-13T00:02:03;7.30;;;3.40;;
69161;SDS011;56269;51.738;21.652;2023-07-13T00:04:29;7.72;;;3.55;;
69161;SDS011;56269;51.738;21.652;2023-07-13T00:06:55;8.07;;;3.53;;
69161;SDS011;56269;51.738;21.652;2023-07-13T00:09:21;9.10;;;3.67;;
69161;SDS011;56269;51.738;21.652;2023-07-13T00:11:51;8.93;;;4.07;;
69161;SDS011;56269;51.738;21.652;2023-07-13T00:14:19;8.20;;;3.72;;
69161;SDS011;56269;51.738;21.652;2023-07-13T00:16:46;7.80;;;3.50;;
69161;SDS011;56269;51.738;21.652;2023-07-13T00:19:12;7.22;;;3.45;;
69161;SDS011;56269;51.738;21.652;2023-07-13T00:21:39;9.15;;;3.72;;
69161;SDS011;56269;51.738;21.652;2023-07-13T00:24:16;7.20;;;3.43;;
69161;SDS011;56269;51.738;21.652;2023-07-13T00:26:48;7.80;;;3.53;;
69161;SDS011;56269;51.738;21.652;2023-07-13T00:29:15;6.72;;;3.33;;
69161;SDS011;56269;51.738;21.652;2023-07-13T00:31:41;7.50;;;3.45;;
69161;SDS011;56269;51.738;21.652;2023-07-13T00:34:09;7.25;;;3.53;;
69161;SDS011;56269;51.738;21.652;2023-07-13T00:36:35;7.03;;;3.40;;
69161;SDS011;56269;51.738;21.652;2023-07-13T00:39:02;7.72;;;3.58;;
69161;SDS011;56269;51.738;21.652;2023-07-13T00:41:29;8.30;;;3.17;;
69161;SDS011;56269;51.738;21.652;2023-07-13T00:43:57;6.97;;;3.13;;
69161;SDS011;56269;51.738;21.652;2023-07-13T00:46:26;6.63;;;2.90;;
69161;SDS011;56269;51.738;21.652;2023-07-13T00:48:56;7.80;;;3.50;;
69161;SDS011;56269;51.738;21.652;2023-07-13T00:51:34;7.13;;;3.03;;
69161;SDS011;56269;51.738;21.652;2023-07-13T00:54:15;6.80;;;2.95;;
69161;SDS011;56269;51.738;21.652;2023-07-13T00:56:57;6.60;;;3.20;;
69161;SDS011;56269;51.738;21.652;2023-07-13T00:59:27;7.88;;;3.30;;
69161;SDS011;56269;51.738;21.652;2023-07-13T01:01:54;8.37;;;3.10;;
69161;SDS011;56269;51.738;21.652;2023-07-13T01:04:20;7.15;;;3.05;;
69161;SDS011;56269;51.738;21.652;2023-07-13T01:06:46;7.32;;;3.13;;
69161;SDS011;56269;51.738;21.652;2023-07-13T01:09:13;7.38;;;3.15;;
69161;SDS011;56269;51.738;21.652;2023-07-13T01:11:40;7.70;;;3.28;;
69161;SDS011;56269;51.738;21.652;2023-07-13T01:14:07;8.20;;;3.80;;
69161;SDS011;56269;51.738;21.652;2023-07-13T01:16:35;7.28;;;3.53;;
69161;SDS011;56269;51.738;21.652;2023-07-13T01:19:04;6.60;;;3.03;;
69161;SDS011;56269;51.738;21.652;2023-07-13T01:21:40;6.70;;;3.20;;
69161;SDS011;56269;51.738;21.652;2023-07-13T01:24:09;8.35;;;3.70;;
69161;SDS011;56269;51.738;21.652;2023-07-13T01:26:35;8.00;;;3.37;;
69161;SDS011;56269;51.738;21.652;2023-07-13T01:29:01;8.15;;;3.60;;
69161;SDS011;56269;51.738;21.652;2023-07-13T01:31:28;6.35;;;3.28;;
69161;SDS011;56269;51.738;21.652;2023-07-13T01:33:54;8.00;;;3.50;;
69161;SDS011;56269;51.738;21.652;2023-07-13T01:36:20;7.20;;;3.27;;
69161;SDS011;56269;51.738;21.652;2023-07-13T01:38:47;7.40;;;3.30;;
69161;SDS011;56269;51.738;21.652;2023-07-13T01:41:13;7.03;;;3.03;;
69161;SDS011;56269;51.738;21.652;2023-07-13T01:43:39;7.55;;;3.13;;
69161;SDS011;56269;51.738;21.652;2023-07-13T01:46:05;8.02;;;3.55;;
69161;SDS011;56269;51.738;21.652;2023-07-13T01:48:31;7.43;;;3.20;;
69161;SDS011;56269;51.738;21.652;2023-07-13T01:50:57;7.18;;;3.28;;
69161;SDS011;56269;51.738;21.652;2023-07-13T01:53:23;7.80;;;3.65;;
69161;SDS011;56269;51.738;21.652;2023-07-13T01:55:49;7.18;;;3.60;;
69161;SDS011;56269;51.738;21.652;2023-07-13T01:58:16;6.50;;;3.03;;
69161;SDS011;56269;51.738;21.652;2023-07-13T02:00:42;6.87;;;3.13;;
69161;SDS011;56269;51.738;21.652;2023-07-13T02:03:09;6.00;;;2.83;;
69161;SDS011;56269;51.738;21.652;2023-07-13T02:05:35;7.35;;;3.15;;
69161;SDS011;56269;51.738;21.652;2023-07-13T02:08:02;7.10;;;3.33;;
69161;SDS011;56269;51.738;21.652;2023-07-13T02:10:28;7.07;;;3.03;;
69161;SDS011;56269;51.738;21.652;2023-07-13T02:12:54;7.73;;;3.40;;
69161;SDS011;56269;51.738;21.652;2023-07-13T02:15:20;6.75;;;3.17;;
69161;SDS011;56269;51.738;21.652;2023-07-13T02:17:47;8.05;;;3.33;;
69161;SDS011;56269;51.738;21.652;2023-07-13T02:20:13;7.70;;;3.38;;
69161;SDS011;56269;51.738;21.652;2023-07-13T02:22:41;7.30;;;3.40;;
69161;SDS011;56269;51.738;21.652;2023-07-13T02:25:07;7.13;;;3.50;;
69161;SDS011;56269;51.738;21.652;2023-07-13T02:27:33;7.30;;;3.47;;
69161;SDS011;56269;51.738;21.652;2023-07-13T02:29:59;7.65;;;3.30;;
69161;SDS011;56269;51.738;21.652;2023-07-13T02:32:26;8.52;;;3.45;;
69161;SDS011;56269;51.738;21.652;2023-07-13T02:34:52;6.90;;;3.13;;
69161;SDS011;56269;51.738;21.652;2023-07-13T02:37:18;8.05;;;3.78;;
69161;SDS011;56269;51.738;21.652;2023-07-13T02:39:44;6.97;;;3.33;;
69161;SDS011;56269;51.738;21.652;2023-07-13T02:42:11;8.45;;;3.25;;
69161;SDS011;56269;51.738;21.652;2023-07-13T02:44:37;7.43;;;3.30;;
69161;SDS011;56269;51.738;21.652;2023-07-13T02:47:03;6.80;;;3.20;;
69161;SDS011;56269;51.738;21.652;2023-07-13T02:49:29;8.07;;;3.38;;
69161;SDS011;56269;51.738;21.652;2023-07-13T02:51:57;8.63;;;3.42;;
69161;SDS011;56269;51.738;21.652;2023-07-13T02:54:23;8.82;;;3.75;;
69161;SDS011;56269;51.738;21.652;2023-07-13T02:56:49;8.38;;;3.75;;
69161;SDS011;56269;51.738;21.652;2023-07-13T02:59:15;8.00;;;3.67;;
69161;SDS011;56269;51.738;21.652;2023-07-13T03:01:41;7.97;;;3.67;;
69161;SDS011;56269;51.738;21.652;2023-07-13T03:04:07;7.10;;;3.33;;
69161;SDS011;56269;51.738;21.652;2023-07-13T03:06:34;8.40;;;3.63;;
69161;SDS011;56269;51.738;21.652;2023-07-13T03:09:00;8.00;;;3.80;;
69161;SDS011;56269;51.738;21.652;2023-07-13T03:11:27;7.03;;;3.63;;
69161;SDS011;56269;51.738;21.652;2023-07-13T03:13:53;8.85;;;4.03;;
69161;SDS011;56269;51.738;21.652;2023-07-13T03:16:19;9.30;;;4.53;;
69161;SDS011;56269;51.738;21.652;2023-07-13T03:18:46;9.73;;;4.35;;
69161;SDS011;56269;51.738;21.652;2023-07-13T03:21:13;8.57;;;4.15;;
69161;SDS011;56269;51.738;21.652;2023-07-13T03:23:40;9.03;;;3.93;;
69161;SDS011;56269;51.738;21.652;2023-07-13T03:26:08;8.75;;;4.40;;
69161;SDS011;56269;51.738;21.652;2023-07-13T03:28:34;9.10;;;4.22;;
69161;SDS011;56269;51.738;21.652;2023-07-13T03:31:08;10.38;;;4.38;;
69161;SDS011;56269;51.738;21.652;2023-07-13T03:33:39;8.90;;;4.40;;
69161;SDS011;56269;51.738;21.652;2023-07-13T03:36:06;8.93;;;4.33;;
69161;SDS011;56269;51.738;21.652;2023-07-13T03:38:35;7.80;;;3.72;;
69161;SDS011;56269;51.738;21.652;2023-07-13T03:41:01;9.27;;;4.18;;
69161;SDS011;56269;51.738;21.652;2023-07-13T03:43:27;9.70;;;3.90;;
69161;SDS011;56269;51.738;21.652;2023-07-13T03:45:54;8.18;;;3.78;;
69161;SDS011;56269;51.738;21.652;2023-07-13T03:48:20;9.30;;;4.10;;
69161;SDS011;56269;51.738;21.652;2023-07-13T03:50:47;8.55;;;4.20;;
69161;SDS011;56269;51.738;21.652;2023-07-13T03:53:15;7.70;;;3.92;;
69161;SDS011;56269;51.738;21.652;2023-07-13T03:55:41;7.78;;;3.95;;
69161;SDS011;56269;51.738;21.652;2023-07-13T03:58:26;8.07;;;3.80;;
69161;SDS011;56269;51.738;21.652;2023-07-13T04:00:57;8.13;;;3.73;;
69161;SDS011;56269;51.738;21.652;2023-07-13T04:03:24;8.23;;;4.40;;
69161;SDS011;56269;51.738;21.652;2023-07-13T04:05:51;7.45;;;3.63;;
69161;SDS011;56269;51.738;21.652;2023-07-13T04:08:17;8.27;;;4.00;;
69161;SDS011;56269;51.738;21.652;2023-07-13T04:10:43;7.82;;;3.97;;
69161;SDS011;56269;51.738;21.652;2023-07-13T04:13:10;8.97;;;4.27;;
69161;SDS011;56269;51.738;21.652;2023-07-13T04:15:36;7.85;;;4.05;;
69161;SDS011;56269;51.738;21.652;2023-07-13T04:18:04;9.88;;;4.65;;
69161;SDS011;56269;51.738;21.652;2023-07-13T04:20:30;9.57;;;4.72;;
69161;SDS011;56269;51.738;21.652;2023-07-13T04:22:58;10.43;;;4.55;;
69161;SDS011;56269;51.738;21.652;2023-07-13T04:25:24;10.10;;;4.93;;
69161;SDS011;56269;51.738;21.652;2023-07-13T04:27:50;8.90;;;4.63;;
69161;SDS011;56269;51.738;21.652;2023-07-13T04:30:17;10.10;;;5.05;;
69161;SDS011;56269;51.738;21.652;2023-07-13T04:32:43;9.98;;;5.20;;
69161;SDS011;56269;51.738;21.652;2023-07-13T04:35:09;10.77;;;5.00;;
69161;SDS011;56269;51.738;21.652;2023-07-13T04:37:35;9.60;;;4.97;;
69161;SDS011;56269;51.738;21.652;2023-07-13T04:40:02;9.70;;;4.82;;
69161;SDS011;56269;51.738;21.652;2023-07-13T04:42:29;9.95;;;5.03;;
69161;SDS011;56269;51.738;21.652;2023-07-13T04:44:55;10.10;;;5.10;;
69161;SDS011;56269;51.738;21.652;2023-07-13T04:47:21;9.73;;;5.03;;
69161;SDS011;56269;51.738;21.652;2023-07-13T04:49:48;9.98;;;4.97;;
69161;SDS011;56269;51.738;21.652;2023-07-13T04:52:14;9.45;;;5.10;;
69161;SDS011;56269;51.738;21.652;2023-07-13T04:54:40;9.68;;;5.03;;
69161;SDS011;56269;51.738;21.652;2023-07-13T04:57:07;10.45;;;5.32;;
69161;SDS011;56269;51.738;21.652;2023-07-13T04:59:34;9.73;;;5.30;;
69161;SDS011;56269;51.738;21.652;2023-07-13T05:02:00;9.95;;;5.20;;
69161;SDS011;56269;51.738;21.652;2023-07-13T05:04:27;9.10;;;5.18;;
69161;SDS011;56269;51.738;21.652;2023-07-13T05:06:53;9.13;;;4.85;;
69161;SDS011;56269;51.738;21.652;2023-07-13T05:09:19;10.65;;;5.40;;
69161;SDS011;56269;51.738;21.652;2023-07-13T05:11:45;9.27;;;5.10;;
69161;SDS011;56269;51.738;21.652;2023-07-13T05:14:12;9.80;;;5.13;;
69161;SDS011;56269;51.738;21.652;2023-07-13T05:16:38;10.27;;;5.57;;
69161;SDS011;56269;51.738;21.652;2023-07-13T05:19:04;10.25;;;4.93;;
69161;SDS011;56269;51.738;21.652;2023-07-13T05:21:30;11.43;;;5.82;;
69161;SDS011;56269;51.738;21.652;2023-07-13T05:23:56;10.63;;;5.23;;
69161;SDS011;56269;51.738;21.652;2023-07-13T05:26:22;10.73;;;5.57;;
69161;SDS011;56269;51.738;21.652;2023-07-13T05:28:49;11.73;;;5.88;;
69161;SDS011;56269;51.738;21.652;2023-07-13T05:31:15;10.00;;;5.40;;
69161;SDS011;56269;51.738;21.652;2023-07-13T05:33:41;9.87;;;5.43;;
69161;SDS011;56269;51.738;21.652;2023-07-13T05:36:07;11.15;;;5.70;;
69161;SDS011;56269;51.738;21.652;2023-07-13T05:38:34;10.20;;;5.50;;
69161;SDS011;56269;51.738;21.652;2023-07-13T05:41:00;10.20;;;5.28;;
69161;SDS011;56269;51.738;21.652;2023-07-13T05:43:26;13.43;;;5.00;;
69161;SDS011;56269;51.738;21.652;2023-07-13T05:45:53;10.90;;;5.43;;
69161;SDS011;56269;51.738;21.652;2023-07-13T05:48:22;9.73;;;5.35;;
69161;SDS011;56269;51.738;21.652;2023-07-13T05:50:48;9.93;;;5.30;;
69161;SDS011;56269;51.738;21.652;2023-07-13T05:53:15;10.07;;;5.53;;
69161;SDS011;56269;51.738;21.652;2023-07-13T05:55:44;10.50;;;5.30;;
69161;SDS011;56269;51.738;21.652;2023-07-13T05:58:16;11.13;;;5.40;;
69161;SDS011;56269;51.738;21.652;2023-07-13T06:00:43;10.43;;;5.45;;
69161;SDS011;56269;51.738;21.652;2023-07-13T06:03:09;11.43;;;5.93;;
69161;SDS011;56269;51.738;21.652;2023-07-13T06:05:35;9.88;;;5.15;;
69161;SDS011;56269;51.738;21.652;2023-07-13T06:08:04;11.05;;;5.65;;
69161;SDS011;56269;51.738;21.652;2023-07-13T06:10:36;10.50;;;5.30;;
69161;SDS011;56269;51.738;21.652;2023-07-13T06:13:03;11.00;;;6.10;;
69161;SDS011;56269;51.738;21.652;2023-07-13T06:15:29;10.57;;;6.00;;
69161;SDS011;56269;51.738;21.652;2023-07-13T06:17:55;10.20;;;5.57;;
69161;SDS011;56269;51.738;21.652;2023-07-13T06:20:21;10.77;;;5.68;;
69161;SDS011;56269;51.738;21.652;2023-07-13T06:22:47;10.33;;;5.67;;
69161;SDS011;56269;51.738;21.652;2023-07-13T06:25:13;10.95;;;5.53;;
69161;SDS011;56269;51.738;21.652;2023-07-13T06:27:40;11.15;;;6.00;;
69161;SDS011;56269;51.738;21.652;2023-07-13T06:30:06;11.15;;;5.75;;
69161;SDS011;56269;51.738;21.652;2023-07-13T06:32:33;10.90;;;5.82;;
69161;SDS011;56269;51.738;21.652;2023-07-13T06:34:59;10.37;;;6.07;;
69161;SDS011;56269;51.738;21.652;2023-07-13T06:37:25;10.95;;;5.72;;
69161;SDS011;56269;51.738;21.652;2023-07-13T06:39:51;10.90;;;6.25;;
69161;SDS011;56269;51.738;21.652;2023-07-13T06:42:17;11.18;;;6.00;;
69161;SDS011;56269;51.738;21.652;2023-07-13T06:44:43;10.20;;;5.57;;
69161;SDS011;56269;51.738;21.652;2023-07-13T06:47:10;11.23;;;5.87;;
69161;SDS011;56269;51.738;21.652;2023-07-13T06:49:36;8.18;;;3.65;;
69161;SDS011;56269;51.738;21.652;2023-07-13T06:52:02;11.27;;;5.72;;
69161;SDS011;56269;51.738;21.652;2023-07-13T06:54:29;11.18;;;6.10;;
69161;SDS011;56269;51.738;21.652;2023-07-13T06:56:55;11.40;;;5.80;;
69161;SDS011;56269;51.738;21.652;2023-07-13T06:59:21;9.63;;;5.63;;
69161;SDS011;56269;51.738;21.652;2023-07-13T07:01:48;10.98;;;6.00;;
69161;SDS011;56269;51.738;21.652;2023-07-13T07:04:14;10.25;;;4.82;;
69161;SDS011;56269;51.738;21.652;2023-07-13T07:06:40;10.20;;;5.35;;
69161;SDS011;56269;51.738;21.652;2023-07-13T07:09:07;9.50;;;5.60;;
69161;SDS011;56269;51.738;21.652;2023-07-13T07:11:34;9.05;;;5.28;;
69161;SDS011;56269;51.738;21.652;2023-07-13T07:14:00;10.32;;;5.65;;
69161;SDS011;56269;51.738;21.652;2023-07-13T07:16:27;9.32;;;5.35;;
69161;SDS011;56269;51.738;21.652;2023-07-13T07:18:53;10.10;;;5.25;;
69161;SDS011;56269;51.738;21.652;2023-07-13T07:21:19;9.63;;;5.53;;
69161;SDS011;56269;51.738;21.652;2023-07-13T07:23:48;10.38;;;5.47;;
69161;SDS011;56269;51.738;21.652;2023-07-13T07:26:14;10.25;;;5.70;;
69161;SDS011;56269;51.738;21.652;2023-07-13T07:28:40;10.57;;;5.18;;
69161;SDS011;56269;51.738;21.652;2023-07-13T07:31:07;10.23;;;5.18;;
69161;SDS011;56269;51.738;21.652;2023-07-13T07:33:34;9.93;;;5.57;;
69161;SDS011;56269;51.738;21.652;2023-07-13T07:36:00;11.18;;;6.10;;
69161;SDS011;56269;51.738;21.652;2023-07-13T07:38:26;11.57;;;5.88;;
69161;SDS011;56269;51.738;21.652;2023-07-13T07:40:53;10.02;;;5.65;;
69161;SDS011;56269;51.738;21.652;2023-07-13T07:43:19;10.15;;;5.07;;
69161;SDS011;56269;51.738;21.652;2023-07-13T07:45:45;10.53;;;5.97;;
69161;SDS011;56269;51.738;21.652;2023-07-13T07:48:14;10.50;;;5.50;;
69161;SDS011;56269;51.738;21.652;2023-07-13T07:50:40;11.10;;;5.80;;
69161;SDS011;56269;51.738;21.652;2023-07-13T07:53:06;10.40;;;5.72;;
69161;SDS011;56269;51.738;21.652;2023-07-13T07:55:34;10.57;;;5.65;;
69161;SDS011;56269;51.738;21.652;2023-07-13T07:58:00;11.90;;;5.73;;
69161;SDS011;56269;51.738;21.652;2023-07-13T08:00:27;11.02;;;5.65;;
69161;SDS011;56269;51.738;21.652;2023-07-13T08:02:56;10.80;;;5.82;;
69161;SDS011;56269;51.738;21.652;2023-07-13T08:05:23;10.82;;;5.60;;
69161;SDS011;56269;51.738;21.652;2023-07-13T08:07:50;10.90;;;5.85;;
69161;SDS011;56269;51.738;21.652;2023-07-13T08:10:16;10.30;;;5.73;;
69161;SDS011;56269;51.738;21.652;2023-07-13T08:12:42;10.82;;;5.85;;
69161;SDS011;56269;51.738;21.652;2023-07-13T08:15:10;10.20;;;5.72;;
69161;SDS011;56269;51.738;21.652;2023-07-13T08:17:37;10.10;;;5.80;;
69161;SDS011;56269;51.738;21.652;2023-07-13T08:20:04;9.98;;;5.60;;
69161;SDS011;56269;51.738;21.652;2023-07-13T08:22:31;10.43;;;5.97;;
69161;SDS011;56269;51.738;21.652;2023-07-13T08:24:58;10.63;;;6.03;;
69161;SDS011;56269;51.738;21.652;2023-07-13T08:27:25;11.27;;;5.70;;
69161;SDS011;56269;51.738;21.652;2023-07-13T08:29:52;9.68;;;5.45;;
69161;SDS011;56269;51.738;21.652;2023-07-13T08:32:19;10.38;;;6.00;;
69161;SDS011;56269;51.738;21.652;2023-07-13T08:34:47;10.47;;;5.23;;
69161;SDS011;56269;51.738;21.652;2023-07-13T08:37:13;9.48;;;5.22;;
69161;SDS011;56269;51.738;21.652;2023-07-13T08:39:40;10.27;;;5.38;;
69161;SDS011;56269;51.738;21.652;2023-07-13T08:47:44;7.87;;;4.13;;
69161;SDS011;56269;51.738;21.652;2023-07-13T08:50:15;9.13;;;5.00;;
69161;SDS011;56269;51.738;21.652;2023-07-13T08:52:43;10.23;;;4.82;;
69161;SDS011;56269;51.738;21.652;2023-07-13T08:55:24;11.30;;;5.10;;
69161;SDS011;56269;51.738;21.652;2023-07-13T08:58:00;11.43;;;4.80;;
69161;SDS011;56269;51.738;21.652;2023-07-13T09:00:34;9.33;;;4.90;;
69161;SDS011;56269;51.738;21.652;2023-07-13T09:03:24;8.70;;;4.63;;
69161;SDS011;56269;51.738;21.652;2023-07-13T09:05:55;9.20;;;4.70;;
69161;SDS011;56269;51.738;21.652;2023-07-13T09:16:24;9.82;;;4.88;;
69161;SDS011;56269;51.738;21.652;2023-07-13T09:18:51;8.90;;;4.97;;
69161;SDS011;56269;51.738;21.652;2023-07-13T09:21:32;9.65;;;4.53;;
69161;SDS011;56269;51.738;21.652;2023-07-13T09:27:00;8.60;;;4.87;;
69161;SDS011;56269;51.738;21.652;2023-07-13T09:29:30;9.32;;;4.75;;
69161;SDS011;56269;51.738;21.652;2023-07-13T09:32:02;8.48;;;4.85;;
69161;SDS011;56269;51.738;21.652;2023-07-13T09:34:33;9.40;;;4.90;;
69161;SDS011;56269;51.738;21.652;2023-07-13T09:37:00;8.43;;;4.80;;
69161;SDS011;56269;51.738;21.652;2023-07-13T09:39:40;11.83;;;5.33;;
69161;SDS011;56269;51.738;21.652;2023-07-13T09:47:25;7.90;;;4.20;;
69161;SDS011;56269;51.738;21.652;2023-07-13T09:50:03;7.97;;;4.40;;
69161;SDS011;56269;51.738;21.652;2023-07-13T09:52:42;8.27;;;4.50;;
69161;SDS011;56269;51.738;21.652;2023-07-13T09:55:26;7.88;;;4.22;;
69161;SDS011;56269;51.738;21.652;2023-07-13T09:57:56;9.32;;;4.47;;
69161;SDS011;56269;51.738;21.652;2023-07-13T10:00:24;7.82;;;4.10;;
69161;SDS011;56269;51.738;21.652;2023-07-13T10:03:09;7.88;;;4.35;;
69161;SDS011;56269;51.738;21.652;2023-07-13T10:05:40;8.33;;;4.33;;
69161;SDS011;56269;51.738;21.652;2023-07-13T10:08:16;8.52;;;4.35;;
69161;SDS011;56269;51.738;21.652;2023-07-13T10:11:00;9.15;;;4.50;;
69161;SDS011;56269;51.738;21.652;2023-07-13T10:13:35;8.35;;;4.28;;
69161;SDS011;56269;51.738;21.652;2023-07-13T10:16:05;7.55;;;4.05;;
69161;SDS011;56269;51.738;21.652;2023-07-13T10:18:37;7.97;;;4.30;;
69161;SDS011;56269;51.738;21.652;2023-07-13T10:21:14;8.52;;;4.50;;
69161;SDS011;56269;51.738;21.652;2023-07-13T10:23:42;7.38;;;3.80;;
69161;SDS011;56269;51.738;21.652;2023-07-13T10:26:15;8.52;;;4.22;;
69161;SDS011;56269;51.738;21.652;2023-07-13T10:28:45;8.60;;;4.63;;
69161;SDS011;56269;51.738;21.652;2023-07-13T10:31:16;7.97;;;4.30;;
69161;SDS011;56269;51.738;21.652;2023-07-13T10:33:43;8.45;;;5.13;;
69161;SDS011;56269;51.738;21.652;2023-07-13T10:36:17;9.27;;;4.25;;
69161;SDS011;56269;51.738;21.652;2023-07-13T10:39:04;8.73;;;4.97;;
69161;SDS011;56269;51.738;21.652;2023-07-13T10:41:33;9.07;;;4.68;;
69161;SDS011;56269;51.738;21.652;2023-07-13T10:44:04;9.20;;;5.30;;
69161;SDS011;56269;51.738;21.652;2023-07-13T10:46:32;10.20;;;5.10;;
69161;SDS011;56269;51.738;21.652;2023-07-13T10:49:00;9.55;;;4.90;;
69161;SDS011;56269;51.738;21.652;2023-07-13T10:51:30;8.13;;;4.90;;
69161;SDS011;56269;51.738;21.652;2023-07-13T10:56:38;9.67;;;5.50;;
69161;SDS011;56269;51.738;21.652;2023-07-13T11:04:21;9.93;;;5.93;;
69161;SDS011;56269;51.738;21.652;2023-07-13T11:06:52;11.63;;;7.00;;
69161;SDS011;56269;51.738;21.652;2023-07-13T11:12:06;12.05;;;6.50;;
69161;SDS011;56269;51.738;21.652;2023-07-13T11:14:36;12.23;;;6.05;;
69161;SDS011;56269;51.738;21.652;2023-07-13T11:22:43;8.97;;;4.80;;
69161;SDS011;56269;51.738;21.652;2023-07-13T11:25:35;11.05;;;6.55;;
69161;SDS011;56269;51.738;21.652;2023-07-13T11:28:24;10.90;;;6.00;;
69161;SDS011;56269;51.738;21.652;2023-07-13T11:33:23;11.87;;;7.37;;
69161;SDS011;56269;51.738;21.652;2023-07-13T11:35:58;11.82;;;7.03;;
69161;SDS011;56269;51.738;21.652;2023-07-13T11:38:50;12.38;;;6.20;;
69161;SDS011;56269;51.738;21.652;2023-07-13T11:41:27;10.40;;;5.93;;
69161;SDS011;56269;51.738;21.652;2023-07-13T11:44:13;11.35;;;6.47;;
69161;SDS011;56269;51.738;21.652;2023-07-13T11:46:46;11.53;;;6.00;;
69161;SDS011;56269;51.738;21.652;2023-07-13T11:49:17;12.10;;;7.00;;
69161;SDS011;56269;51.738;21.652;2023-07-13T11:51:45;14.73;;;7.03;;
69161;SDS011;56269;51.738;21.652;2023-07-13T11:54:20;12.48;;;7.72;;
69161;SDS011;56269;51.738;21.652;2023-07-13T11:56:55;13.13;;;7.53;;
69161;SDS011;56269;51.738;21.652;2023-07-13T11:59:23;12.73;;;7.80;;
69161;SDS011;56269;51.738;21.652;2023-07-13T12:01:51;12.05;;;7.25;;
69161;SDS011;56269;51.738;21.652;2023-07-13T12:04:21;13.57;;;7.57;;
69161;SDS011;56269;51.738;21.652;2023-07-13T12:07:06;12.30;;;7.22;;
69161;SDS011;56269;51.738;21.652;2023-07-13T12:09:39;14.32;;;7.63;;
69161;SDS011;56269;51.738;21.652;2023-07-13T12:12:11;13.67;;;7.10;;
69161;SDS011;56269;51.738;21.652;2023-07-13T12:14:38;14.05;;;7.55;;
69161;SDS011;56269;51.738;21.652;2023-07-13T12:17:09;13.70;;;7.82;;
69161;SDS011;56269;51.738;21.652;2023-07-13T12:19:47;13.32;;;7.82;;
69161;SDS011;56269;51.738;21.652;2023-07-13T12:22:16;14.27;;;7.97;;
69161;SDS011;56269;51.738;21.652;2023-07-13T12:24:43;14.57;;;7.87;;
69161;SDS011;56269;51.738;21.652;2023-07-13T12:27:18;14.43;;;8.52;;
69161;SDS011;56269;51.738;21.652;2023-07-13T12:29:58;16.05;;;8.95;;
69161;SDS011;56269;51.738;21.652;2023-07-13T12:32:28;11.82;;;6.95;;
69161;SDS011;56269;51.738;21.652;2023-07-13T12:35:04;12.88;;;7.03;;
69161;SDS011;56269;51.738;21.652;2023-07-13T12:37:42;9.60;;;5.40;;
69161;SDS011;56269;51.738;21.652;2023-07-13T12:40:14;10.40;;;5.53;;
69161;SDS011;56269;51.738;21.652;2023-07-13T12:42:45;10.30;;;5.72;;
69161;SDS011;56269;51.738;21.652;2023-07-13T12:45:19;8.80;;;3.47;;
69161;SDS011;56269;51.738;21.652;2023-07-13T12:47:50;4.78;;;2.10;;
69161;SDS011;56269;51.738;21.652;2023-07-13T12:50:20;5.90;;;2.57;;
69161;SDS011;56269;51.738;21.652;2023-07-13T12:52:53;5.60;;;1.80;;
69161;SDS011;56269;51.738;21.652;2023-07-13T12:55:20;4.55;;;1.92;;
69161;SDS011;56269;51.738;21.652;2023-07-13T12:57:51;4.85;;;1.90;;
69161;SDS011;56269;51.738;21.652;2023-07-13T13:00:25;5.68;;;2.30;;
69161;SDS011;56269;51.738;21.652;2023-07-13T13:03:02;5.63;;;2.40;;
69161;SDS011;56269;51.738;21.652;2023-07-13T13:05:31;6.68;;;2.42;;
69161;SDS011;56269;51.738;21.652;2023-07-13T13:07:58;4.82;;;2.08;;
69161;SDS011;56269;51.738;21.652;2023-07-13T13:10:25;7.03;;;2.97;;
69161;SDS011;56269;51.738;21.652;2023-07-13T13:12:52;5.50;;;2.25;;
69161;SDS011;56269;51.738;21.652;2023-07-13T13:15:18;6.43;;;2.13;;
69161;SDS011;56269;51.738;21.652;2023-07-13T13:17:47;6.43;;;2.75;;
69161;SDS011;56269;51.738;21.652;2023-07-13T13:20:14;6.72;;;2.60;;
69161;SDS011;56269;51.738;21.652;2023-07-13T13:22:42;6.93;;;2.03;;
69161;SDS011;56269;51.738;21.652;2023-07-13T13:25:10;5.22;;;2.30;;
69161;SDS011;56269;51.738;21.652;2023-07-13T13:27:37;6.00;;;2.70;;
69161;SDS011;56269;51.738;21.652;2023-07-13T13:30:11;6.22;;;2.60;;
69161;SDS011;56269;51.738;21.652;2023-07-13T13:32:44;7.15;;;2.85;;
69161;SDS011;56269;51.738;21.652;2023-07-13T13:35:14;5.88;;;2.30;;
69161;SDS011;56269;51.738;21.652;2023-07-13T13:37:43;6.95;;;2.80;;
69161;SDS011;56269;51.738;21.652;2023-07-13T13:40:14;6.90;;;2.80;;
69161;SDS011;56269;51.738;21.652;2023-07-13T13:42:42;5.93;;;2.47;;
69161;SDS011;56269;51.738;21.652;2023-07-13T13:45:09;4.93;;;2.17;;
69161;SDS011;56269;51.738;21.652;2023-07-13T13:47:36;4.88;;;1.90;;
69161;SDS011;56269;51.738;21.652;2023-07-13T13:50:13;5.10;;;2.00;;
69161;SDS011;56269;51.738;21.652;2023-07-13T13:52:43;5.10;;;2.13;;
69161;SDS011;56269;51.738;21.652;2023-07-13T13:55:17;6.30;;;2.50;;
69161;SDS011;56269;51.738;21.652;2023-07-13T13:57:46;4.72;;;1.83;;
69161;SDS011;56269;51.738;21.652;2023-07-13T14:00:13;5.88;;;2.08;;
69161;SDS011;56269;51.738;21.652;2023-07-13T14:02:46;5.75;;;2.40;;
69161;SDS011;56269;51.738;21.652;2023-07-13T14:05:15;6.03;;;2.30;;
69161;SDS011;56269;51.738;21.652;2023-07-13T14:07:48;6.13;;;2.40;;
69161;SDS011;56269;51.738;21.652;2023-07-13T14:10:15;6.97;;;2.42;;
69161;SDS011;56269;51.738;21.652;2023-07-13T14:12:44;5.78;;;2.28;;
69161;SDS011;56269;51.738;21.652;2023-07-13T14:15:18;6.00;;;2.63;;
69161;SDS011;56269;51.738;21.652;2023-07-13T14:17:47;6.97;;;3.00;;
69161;SDS011;56269;51.738;21.652;2023-07-13T14:20:20;5.53;;;2.38;;
69161;SDS011;56269;51.738;21.652;2023-07-13T14:22:48;6.70;;;2.75;;
69161;SDS011;56269;51.738;21.652;2023-07-13T14:25:15;6.38;;;2.70;;
69161;SDS011;56269;51.738;21.652;2023-07-13T14:27:44;7.63;;;2.95;;
69161;SDS011;56269;51.738;21.652;2023-07-13T14:32:43;5.97;;;2.35;;
69161;SDS011;56269;51.738;21.652;2023-07-13T14:35:13;6.22;;;2.40;;
69161;SDS011;56269;51.738;21.652;2023-07-13T14:37:40;6.45;;;2.83;;
69161;SDS011;56269;51.738;21.652;2023-07-13T14:40:15;6.45;;;2.75;;
69161;SDS011;56269;51.738;21.652;2023-07-13T14:42:45;6.00;;;2.70;;
69161;SDS011;56269;51.738;21.652;2023-07-13T14:45:14;6.18;;;2.60;;
69161;SDS011;56269;51.738;21.652;2023-07-13T14:47:42;6.10;;;2.90;;
69161;SDS011;56269;51.738;21.652;2023-07-13T14:50:16;6.30;;;2.72;;
69161;SDS011;56269;51.738;21.652;2023-07-13T14:52:45;7.25;;;2.65;;
69161;SDS011;56269;51.738;21.652;2023-07-13T14:55:13;6.63;;;2.80;;
69161;SDS011;56269;51.738;21.652;2023-07-13T14:57:42;6.18;;;2.90;;
69161;SDS011;56269;51.738;21.652;2023-07-13T15:00:21;7.43;;;2.90;;
69161;SDS011;56269;51.738;21.652;2023-07-13T15:02:51;5.60;;;2.55;;
69161;SDS011;56269;51.738;21.652;2023-07-13T15:05:27;6.93;;;3.00;;
69161;SDS011;56269;51.738;21.652;2023-07-13T15:07:59;6.83;;;3.03;;
69161;SDS011;56269;51.738;21.652;2023-07-13T15:10:30;7.07;;;3.10;;
69161;SDS011;56269;51.738;21.652;2023-07-13T15:12:59;8.27;;;3.20;;
69161;SDS011;56269;51.738;21.652;2023-07-13T15:15:29;7.80;;;3.47;;
69161;SDS011;56269;51.738;21.652;2023-07-13T15:17:58;6.95;;;3.28;;
69161;SDS011;56269;51.738;21.652;2023-07-13T15:20:27;7.50;;;3.17;;
69161;SDS011;56269;51.738;21.652;2023-07-13T15:22:56;6.93;;;3.13;;
69161;SDS011;56269;51.738;21.652;2023-07-13T15:25:26;7.00;;;2.97;;